sensor_id;sensor_type;location;lat;lon;timestamp;P1;durP1;ratioP1;P2;durP2;ratioP2
44862;SDS011;30597;49.628;10.850;2022-07-22T00:02:24;6.70;;;6.20;;
44862;SDS011;30597;49.628;10.850;2022-07-22T00:04:50;6.40;;;5.90;;
44862;SDS011;30597;49.628;10.850;2022-07-22T00:07:15;7.40;;;6.77;;
44862;SDS011;30597;49.628;10.850;2022-07-22T00:09:41;6.80;;;5.70;;
44862;SDS011;30597;49.628;10.850;2022-07-22T00:12:07;6.47;;;5.87;;
44862;SDS011;30597;49.628;10.850;2022-07-22T00:14:33;7.10;;;6.50;;
44862;SDS011;30597;49.628;10.850;2022-07-22T00:16:59;7.67;;;6.97;;
44862;SDS011;30597;49.628;10.850;2022-07-22T00:19:24;7.73;;;6.73;;
44862;SDS011;30597;49.628;10.850;2022-07-22T00:21:50;6.93;;;6.33;;
44862;SDS011;30597;49.628;10.850;2022-07-22T00:24:17;6.43;;;5.93;;
44862;SDS011;30597;49.628;10.850;2022-07-22T00:26:42;6.30;;;5.80;;
44862;SDS011;30597;49.628;10.850;2022-07-22T00:29:08;7.13;;;6.30;;
44862;SDS011;30597;49.628;10.850;2022-07-22T00:31:34;6.87;;;6.17;;
44862;SDS011;30597;49.628;10.850;2022-07-22T00:33:59;7.40;;;6.43;;
44862;SDS011;30597;49.628;10.850;2022-07-22T00:36:29;8.37;;;6.93;;
44862;SDS011;30597;49.628;10.850;2022-07-22T00:38:55;7.10;;;6.40;;
44862;SDS011;30597;49.628;10.850;2022-07-22T00:41:21;7.10;;;6.33;;
44862;SDS011;30597;49.628;10.850;2022-07-22T00:43:48;5.83;;;5.33;;
44862;SDS011;30597;49.628;10.850;2022-07-22T00:46:14;6.87;;;6.33;;
44862;SDS011;30597;49.628;10.850;2022-07-22T00:48:40;7.23;;;6.63;;
44862;SDS011;30597;49.628;10.850;2022-07-22T00:51:05;6.53;;;6.03;;
44862;SDS011;30597;49.628;10.850;2022-07-22T00:53:31;7.73;;;6.40;;
44862;SDS011;30597;49.628;10.850;2022-07-22T00:55:57;6.70;;;6.10;;
44862;SDS011;30597;49.628;10.850;2022-07-22T00:58:22;7.43;;;6.70;;
44862;SDS011;30597;49.628;10.850;2022-07-22T01:00:48;7.13;;;6.57;;
44862;SDS011;30597;49.628;10.850;2022-07-22T01:03:14;6.63;;;6.13;;
44862;SDS011;30597;49.628;10.850;2022-07-22T01:05:41;6.20;;;5.70;;
44862;SDS011;30597;49.628;10.850;2022-07-22T01:08:07;6.77;;;6.17;;
44862;SDS011;30597;49.628;10.850;2022-07-22T01:10:33;7.47;;;6.77;;
44862;SDS011;30597;49.628;10.850;2022-07-22T01:12:59;7.60;;;6.90;;
44862;SDS011;30597;49.628;10.850;2022-07-22T01:15:24;6.80;;;6.10;;
44862;SDS011;30597;49.628;10.850;2022-07-22T01:17:50;6.67;;;6.10;;
44862;SDS011;30597;49.628;10.850;2022-07-22T01:20:15;6.47;;;5.70;;
44862;SDS011;30597;49.628;10.850;2022-07-22T01:22:41;6.83;;;6.13;;
44862;SDS011;30597;49.628;10.850;2022-07-22T01:25:07;6.47;;;5.87;;
44862;SDS011;30597;49.628;10.850;2022-07-22T01:27:32;6.03;;;5.47;;
44862;SDS011;30597;49.628;10.850;2022-07-22T01:29:58;7.23;;;6.63;;
44862;SDS011;30597;49.628;10.850;2022-07-22T01:32:23;6.83;;;6.30;;
44862;SDS011;30597;49.628;10.850;2022-07-22T01:34:49;7.00;;;6.40;;
44862;SDS011;30597;49.628;10.850;2022-07-22T01:37:15;7.63;;;6.80;;
44862;SDS011;30597;49.628;10.850;2022-07-22T01:39:40;6.97;;;6.27;;
44862;SDS011;30597;49.628;10.850;2022-07-22T01:42:06;7.40;;;6.80;;
44862;SDS011;30597;49.628;10.850;2022-07-22T01:44:32;6.87;;;6.33;;
44862;SDS011;30597;49.628;10.850;2022-07-22T01:46:57;6.30;;;5.80;;
44862;SDS011;30597;49.628;10.850;2022-07-22T01:49:23;6.60;;;5.90;;
44862;SDS011;30597;49.628;10.850;2022-07-22T01:51:50;6.73;;;6.13;;
44862;SDS011;30597;49.628;10.850;2022-07-22T01:54:15;6.23;;;5.73;;
44862;SDS011;30597;49.628;10.850;2022-07-22T01:56:41;6.43;;;5.87;;
44862;SDS011;30597;49.628;10.850;2022-07-22T01:59:06;7.63;;;6.87;;
44862;SDS011;30597;49.628;10.850;2022-07-22T02:01:32;7.13;;;6.43;;
44862;SDS011;30597;49.628;10.850;2022-07-22T02:03:58;6.37;;;5.77;;
44862;SDS011;30597;49.628;10.850;2022-07-22T02:06:23;7.30;;;6.63;;
44862;SDS011;30597;49.628;10.850;2022-07-22T02:08:49;6.30;;;5.80;;
44862;SDS011;30597;49.628;10.850;2022-07-22T02:11:15;7.07;;;6.47;;
44862;SDS011;30597;49.628;10.850;2022-07-22T02:13:40;6.60;;;6.00;;
44862;SDS011;30597;49.628;10.850;2022-07-22T02:16:06;7.03;;;6.47;;
44862;SDS011;30597;49.628;10.850;2022-07-22T02:18:31;6.97;;;6.47;;
44862;SDS011;30597;49.628;10.850;2022-07-22T02:20:57;7.17;;;6.57;;
44862;SDS011;30597;49.628;10.850;2022-07-22T02:23:22;8.10;;;7.40;;
44862;SDS011;30597;49.628;10.850;2022-07-22T02:25:48;6.60;;;6.10;;
44862;SDS011;30597;49.628;10.850;2022-07-22T02:28:13;6.73;;;6.13;;
44862;SDS011;30597;49.628;10.850;2022-07-22T02:30:39;7.10;;;6.40;;
44862;SDS011;30597;49.628;10.850;2022-07-22T02:33:04;6.53;;;6.03;;
44862;SDS011;30597;49.628;10.850;2022-07-22T02:35:30;6.57;;;5.97;;
44862;SDS011;30597;49.628;10.850;2022-07-22T02:37:56;7.20;;;6.60;;
44862;SDS011;30597;49.628;10.850;2022-07-22T02:40:22;7.57;;;6.97;;
44862;SDS011;30597;49.628;10.850;2022-07-22T02:42:47;7.23;;;6.53;;
44862;SDS011;30597;49.628;10.850;2022-07-22T02:45:13;7.80;;;7.20;;
44862;SDS011;30597;49.628;10.850;2022-07-22T02:47:49;6.53;;;5.93;;
44862;SDS011;30597;49.628;10.850;2022-07-22T02:50:16;7.13;;;6.40;;
44862;SDS011;30597;49.628;10.850;2022-07-22T02:52:42;6.70;;;6.10;;
44862;SDS011;30597;49.628;10.850;2022-07-22T02:55:08;6.80;;;6.30;;
44862;SDS011;30597;49.628;10.850;2022-07-22T02:57:33;6.73;;;6.13;;
44862;SDS011;30597;49.628;10.850;2022-07-22T02:59:59;6.77;;;6.27;;
44862;SDS011;30597;49.628;10.850;2022-07-22T03:02:25;8.30;;;7.50;;
44862;SDS011;30597;49.628;10.850;2022-07-22T03:04:50;7.37;;;6.67;;
44862;SDS011;30597;49.628;10.850;2022-07-22T03:07:16;7.07;;;6.37;;
44862;SDS011;30597;49.628;10.850;2022-07-22T03:09:42;7.47;;;6.87;;
44862;SDS011;30597;49.628;10.850;2022-07-22T03:12:08;6.00;;;5.50;;
44862;SDS011;30597;49.628;10.850;2022-07-22T03:14:34;7.23;;;6.63;;
44862;SDS011;30597;49.628;10.850;2022-07-22T03:16:59;7.13;;;6.57;;
44862;SDS011;30597;49.628;10.850;2022-07-22T03:19:25;6.60;;;6.10;;
44862;SDS011;30597;49.628;10.850;2022-07-22T03:21:50;7.03;;;6.43;;
44862;SDS011;30597;49.628;10.850;2022-07-22T03:24:16;6.87;;;6.27;;
44862;SDS011;30597;49.628;10.850;2022-07-22T03:26:41;7.57;;;6.97;;
44862;SDS011;30597;49.628;10.850;2022-07-22T03:29:07;7.07;;;6.50;;
44862;SDS011;30597;49.628;10.850;2022-07-22T03:31:32;7.17;;;6.53;;
44862;SDS011;30597;49.628;10.850;2022-07-22T03:33:58;6.77;;;6.17;;
44862;SDS011;30597;49.628;10.850;2022-07-22T03:36:25;6.77;;;6.20;;
44862;SDS011;30597;49.628;10.850;2022-07-22T03:38:52;8.40;;;7.70;;
44862;SDS011;30597;49.628;10.850;2022-07-22T03:41:17;7.47;;;6.87;;
44862;SDS011;30597;49.628;10.850;2022-07-22T03:43:43;7.93;;;7.13;;
44862;SDS011;30597;49.628;10.850;2022-07-22T03:46:08;6.97;;;6.37;;
44862;SDS011;30597;49.628;10.850;2022-07-22T03:48:34;7.30;;;6.60;;
44862;SDS011;30597;49.628;10.850;2022-07-22T03:51:00;7.97;;;6.33;;
44862;SDS011;30597;49.628;10.850;2022-07-22T03:53:26;7.70;;;7.10;;
44862;SDS011;30597;49.628;10.850;2022-07-22T03:55:51;7.93;;;7.13;;
44862;SDS011;30597;49.628;10.850;2022-07-22T03:58:17;7.17;;;6.47;;
44862;SDS011;30597;49.628;10.850;2022-07-22T04:00:43;7.73;;;6.93;;
44862;SDS011;30597;49.628;10.850;2022-07-22T04:03:08;7.20;;;6.60;;
44862;SDS011;30597;49.628;10.850;2022-07-22T04:05:34;7.30;;;6.70;;
44862;SDS011;30597;49.628;10.850;2022-07-22T04:07:59;7.10;;;6.60;;
44862;SDS011;30597;49.628;10.850;2022-07-22T04:10:25;7.70;;;7.10;;
44862;SDS011;30597;49.628;10.850;2022-07-22T04:12:51;7.03;;;6.43;;
44862;SDS011;30597;49.628;10.850;2022-07-22T04:15:16;7.50;;;6.80;;
44862;SDS011;30597;49.628;10.850;2022-07-22T04:17:42;6.83;;;6.23;;
44862;SDS011;30597;49.628;10.850;2022-07-22T04:20:07;7.37;;;6.77;;
44862;SDS011;30597;49.628;10.850;2022-07-22T04:22:33;7.13;;;6.60;;
44862;SDS011;30597;49.628;10.850;2022-07-22T04:24:59;7.90;;;7.20;;
44862;SDS011;30597;49.628;10.850;2022-07-22T04:27:24;7.97;;;7.27;;
44862;SDS011;30597;49.628;10.850;2022-07-22T04:29:50;7.33;;;6.73;;
44862;SDS011;30597;49.628;10.850;2022-07-22T04:32:15;7.10;;;6.50;;
44862;SDS011;30597;49.628;10.850;2022-07-22T04:34:41;7.87;;;7.27;;
44862;SDS011;30597;49.628;10.850;2022-07-22T04:37:07;7.23;;;6.63;;
44862;SDS011;30597;49.628;10.850;2022-07-22T04:39:32;7.07;;;6.47;;
44862;SDS011;30597;49.628;10.850;2022-07-22T04:41:58;7.37;;;6.77;;
44862;SDS011;30597;49.628;10.850;2022-07-22T04:44:24;7.40;;;6.70;;
44862;SDS011;30597;49.628;10.850;2022-07-22T04:46:49;7.90;;;7.27;;
44862;SDS011;30597;49.628;10.850;2022-07-22T04:49:15;7.63;;;6.93;;
44862;SDS011;30597;49.628;10.850;2022-07-22T04:51:40;6.87;;;6.20;;
44862;SDS011;30597;49.628;10.850;2022-07-22T04:54:06;8.50;;;7.70;;
44862;SDS011;30597;49.628;10.850;2022-07-22T04:56:31;7.03;;;6.43;;
44862;SDS011;30597;49.628;10.850;2022-07-22T04:58:57;7.50;;;6.90;;
44862;SDS011;30597;49.628;10.850;2022-07-22T05:01:22;7.60;;;6.80;;
44862;SDS011;30597;49.628;10.850;2022-07-22T05:03:48;9.87;;;8.97;;
44862;SDS011;30597;49.628;10.850;2022-07-22T05:06:14;10.40;;;8.87;;
44862;SDS011;30597;49.628;10.850;2022-07-22T05:08:39;9.27;;;8.00;;
44862;SDS011;30597;49.628;10.850;2022-07-22T05:11:06;8.93;;;8.03;;
44862;SDS011;30597;49.628;10.850;2022-07-22T05:13:31;8.70;;;8.00;;
44862;SDS011;30597;49.628;10.850;2022-07-22T05:15:57;9.40;;;7.87;;
44862;SDS011;30597;49.628;10.850;2022-07-22T05:18:27;8.07;;;7.27;;
44862;SDS011;30597;49.628;10.850;2022-07-22T05:20:53;10.30;;;9.13;;
44862;SDS011;30597;49.628;10.850;2022-07-22T05:23:18;10.00;;;9.10;;
44862;SDS011;30597;49.628;10.850;2022-07-22T05:25:44;10.80;;;9.70;;
44862;SDS011;30597;49.628;10.850;2022-07-22T05:28:09;8.73;;;8.00;;
44862;SDS011;30597;49.628;10.850;2022-07-22T05:30:35;9.10;;;8.30;;
44862;SDS011;30597;49.628;10.850;2022-07-22T05:33:00;9.23;;;8.27;;
44862;SDS011;30597;49.628;10.850;2022-07-22T05:35:26;10.40;;;9.50;;
44862;SDS011;30597;49.628;10.850;2022-07-22T05:37:52;9.20;;;8.33;;
44862;SDS011;30597;49.628;10.850;2022-07-22T05:40:17;8.93;;;8.03;;
44862;SDS011;30597;49.628;10.850;2022-07-22T05:42:44;9.07;;;8.10;;
44862;SDS011;30597;49.628;10.850;2022-07-22T05:45:09;9.20;;;8.30;;
44862;SDS011;30597;49.628;10.850;2022-07-22T05:47:35;8.80;;;8.00;;
44862;SDS011;30597;49.628;10.850;2022-07-22T05:50:00;9.70;;;8.77;;
44862;SDS011;30597;49.628;10.850;2022-07-22T05:52:26;16.53;;;8.40;;
44862;SDS011;30597;49.628;10.850;2022-07-22T05:54:51;10.93;;;8.70;;
44862;SDS011;30597;49.628;10.850;2022-07-22T05:57:18;10.07;;;8.97;;
44862;SDS011;30597;49.628;10.850;2022-07-22T05:59:43;9.90;;;7.87;;
44862;SDS011;30597;49.628;10.850;2022-07-22T06:02:09;12.30;;;9.40;;
44862;SDS011;30597;49.628;10.850;2022-07-22T06:04:34;9.30;;;8.40;;
44862;SDS011;30597;49.628;10.850;2022-07-22T06:07:00;9.63;;;8.03;;
44862;SDS011;30597;49.628;10.850;2022-07-22T06:09:26;9.33;;;8.43;;
44862;SDS011;30597;49.628;10.850;2022-07-22T06:11:52;8.40;;;7.70;;
44862;SDS011;30597;49.628;10.850;2022-07-22T06:14:17;11.23;;;8.03;;
44862;SDS011;30597;49.628;10.850;2022-07-22T06:16:43;8.57;;;7.77;;
44862;SDS011;30597;49.628;10.850;2022-07-22T06:19:08;9.67;;;7.80;;
44862;SDS011;30597;49.628;10.850;2022-07-22T06:21:34;8.67;;;7.87;;
44862;SDS011;30597;49.628;10.850;2022-07-22T06:24:01;8.30;;;7.43;;
44862;SDS011;30597;49.628;10.850;2022-07-22T06:26:26;9.30;;;8.43;;
44862;SDS011;30597;49.628;10.850;2022-07-22T06:28:52;9.33;;;8.43;;
44862;SDS011;30597;49.628;10.850;2022-07-22T06:31:17;8.50;;;7.70;;
44862;SDS011;30597;49.628;10.850;2022-07-22T06:33:43;8.00;;;7.30;;
44862;SDS011;30597;49.628;10.850;2022-07-22T06:36:09;9.40;;;7.77;;
44862;SDS011;30597;49.628;10.850;2022-07-22T06:38:34;7.80;;;7.10;;
44862;SDS011;30597;49.628;10.850;2022-07-22T06:41:00;7.43;;;6.73;;
44862;SDS011;30597;49.628;10.850;2022-07-22T06:43:27;8.37;;;7.57;;
44862;SDS011;30597;49.628;10.850;2022-07-22T06:45:54;8.13;;;6.53;;
44862;SDS011;30597;49.628;10.850;2022-07-22T06:48:19;9.33;;;8.33;;
44862;SDS011;30597;49.628;10.850;2022-07-22T06:50:45;7.97;;;7.27;;
44862;SDS011;30597;49.628;10.850;2022-07-22T06:53:10;7.87;;;7.17;;
44862;SDS011;30597;49.628;10.850;2022-07-22T06:55:36;8.77;;;7.90;;
44862;SDS011;30597;49.628;10.850;2022-07-22T06:58:01;7.57;;;6.97;;
44862;SDS011;30597;49.628;10.850;2022-07-22T07:00:27;8.73;;;7.23;;
44862;SDS011;30597;49.628;10.850;2022-07-22T07:02:53;9.17;;;7.30;;
44862;SDS011;30597;49.628;10.850;2022-07-22T07:05:18;8.13;;;7.43;;
44862;SDS011;30597;49.628;10.850;2022-07-22T07:07:44;7.90;;;7.20;;
44862;SDS011;30597;49.628;10.850;2022-07-22T07:10:09;7.27;;;6.60;;
44862;SDS011;30597;49.628;10.850;2022-07-22T07:12:37;7.23;;;6.30;;
44862;SDS011;30597;49.628;10.850;2022-07-22T07:15:03;7.03;;;6.30;;
44862;SDS011;30597;49.628;10.850;2022-07-22T07:17:29;7.13;;;6.43;;
44862;SDS011;30597;49.628;10.850;2022-07-22T07:19:55;7.57;;;6.77;;
44862;SDS011;30597;49.628;10.850;2022-07-22T07:22:20;7.57;;;6.87;;
44862;SDS011;30597;49.628;10.850;2022-07-22T07:24:46;6.70;;;6.20;;
44862;SDS011;30597;49.628;10.850;2022-07-22T07:27:11;7.80;;;7.10;;
44862;SDS011;30597;49.628;10.850;2022-07-22T07:29:37;7.20;;;6.60;;
44862;SDS011;30597;49.628;10.850;2022-07-22T07:32:03;6.70;;;6.10;;
44862;SDS011;30597;49.628;10.850;2022-07-22T07:34:29;8.00;;;7.10;;
44862;SDS011;30597;49.628;10.850;2022-07-22T07:36:54;7.00;;;6.40;;
44862;SDS011;30597;49.628;10.850;2022-07-22T07:39:20;6.93;;;6.30;;
44862;SDS011;30597;49.628;10.850;2022-07-22T07:41:45;7.37;;;6.40;;
44862;SDS011;30597;49.628;10.850;2022-07-22T07:44:11;7.23;;;6.53;;
44862;SDS011;30597;49.628;10.850;2022-07-22T07:46:37;7.73;;;7.13;;
44862;SDS011;30597;49.628;10.850;2022-07-22T07:49:02;8.27;;;7.57;;
44862;SDS011;30597;49.628;10.850;2022-07-22T07:51:28;7.40;;;6.50;;
44862;SDS011;30597;49.628;10.850;2022-07-22T07:53:54;7.33;;;6.60;;
44862;SDS011;30597;49.628;10.850;2022-07-22T07:56:19;7.90;;;7.20;;
44862;SDS011;30597;49.628;10.850;2022-07-22T07:58:45;7.50;;;6.90;;
44862;SDS011;30597;49.628;10.850;2022-07-22T08:01:11;7.23;;;6.63;;
44862;SDS011;30597;49.628;10.850;2022-07-22T08:03:37;7.50;;;6.80;;
44862;SDS011;30597;49.628;10.850;2022-07-22T08:06:02;7.27;;;6.67;;
44862;SDS011;30597;49.628;10.850;2022-07-22T08:08:28;8.13;;;7.43;;
44862;SDS011;30597;49.628;10.850;2022-07-22T08:10:53;7.10;;;6.40;;
44862;SDS011;30597;49.628;10.850;2022-07-22T08:13:19;7.87;;;6.67;;
44862;SDS011;30597;49.628;10.850;2022-07-22T08:15:44;7.37;;;6.67;;
44862;SDS011;30597;49.628;10.850;2022-07-22T08:18:10;7.43;;;6.80;;
44862;SDS011;30597;49.628;10.850;2022-07-22T08:20:36;7.63;;;7.03;;
44862;SDS011;30597;49.628;10.850;2022-07-22T08:23:01;7.53;;;6.63;;
44862;SDS011;30597;49.628;10.850;2022-07-22T08:25:28;6.97;;;6.20;;
44862;SDS011;30597;49.628;10.850;2022-07-22T08:27:54;8.07;;;7.37;;
44862;SDS011;30597;49.628;10.850;2022-07-22T08:30:19;9.40;;;8.60;;
44862;SDS011;30597;49.628;10.850;2022-07-22T08:32:48;7.33;;;6.73;;
44862;SDS011;30597;49.628;10.850;2022-07-22T08:35:14;8.50;;;7.80;;
44862;SDS011;30597;49.628;10.850;2022-07-22T08:37:39;8.40;;;7.60;;
44862;SDS011;30597;49.628;10.850;2022-07-22T08:40:08;8.50;;;7.70;;
44862;SDS011;30597;49.628;10.850;2022-07-22T08:42:38;9.43;;;8.40;;
44862;SDS011;30597;49.628;10.850;2022-07-22T08:45:05;8.47;;;7.77;;
44862;SDS011;30597;49.628;10.850;2022-07-22T08:47:31;9.30;;;8.30;;
44862;SDS011;30597;49.628;10.850;2022-07-22T08:49:57;9.10;;;8.10;;
44862;SDS011;30597;49.628;10.850;2022-07-22T08:52:22;8.90;;;8.10;;
44862;SDS011;30597;49.628;10.850;2022-07-22T08:54:48;8.13;;;7.40;;
44862;SDS011;30597;49.628;10.850;2022-07-22T08:57:13;8.37;;;7.67;;
44862;SDS011;30597;49.628;10.850;2022-07-22T08:59:49;8.67;;;7.87;;
44862;SDS011;30597;49.628;10.850;2022-07-22T09:02:16;8.63;;;7.80;;
44862;SDS011;30597;49.628;10.850;2022-07-22T09:04:53;9.10;;;8.20;;
44862;SDS011;30597;49.628;10.850;2022-07-22T09:09:53;8.60;;;7.70;;
44862;SDS011;30597;49.628;10.850;2022-07-22T09:12:19;8.90;;;8.10;;
44862;SDS011;30597;49.628;10.850;2022-07-22T09:14:46;8.70;;;7.73;;
44862;SDS011;30597;49.628;10.850;2022-07-22T09:17:23;9.83;;;8.83;;
44862;SDS011;30597;49.628;10.850;2022-07-22T09:19:48;8.33;;;7.53;;
44862;SDS011;30597;49.628;10.850;2022-07-22T09:22:14;7.80;;;7.17;;
44862;SDS011;30597;49.628;10.850;2022-07-22T09:24:54;9.00;;;8.20;;
44862;SDS011;30597;49.628;10.850;2022-07-22T09:27:23;9.50;;;8.70;;
44862;SDS011;30597;49.628;10.850;2022-07-22T09:29:50;10.13;;;8.37;;
44862;SDS011;30597;49.628;10.850;2022-07-22T09:32:16;9.40;;;8.50;;
44862;SDS011;30597;49.628;10.850;2022-07-22T09:34:42;9.83;;;8.87;;
44862;SDS011;30597;49.628;10.850;2022-07-22T09:37:07;9.30;;;8.50;;
44862;SDS011;30597;49.628;10.850;2022-07-22T09:39:33;9.17;;;8.37;;
44862;SDS011;30597;49.628;10.850;2022-07-22T09:41:59;8.40;;;7.70;;
44862;SDS011;30597;49.628;10.850;2022-07-22T09:44:30;9.90;;;9.10;;
44862;SDS011;30597;49.628;10.850;2022-07-22T09:46:56;9.53;;;8.73;;
44862;SDS011;30597;49.628;10.850;2022-07-22T09:49:34;9.73;;;8.83;;
44862;SDS011;30597;49.628;10.850;2022-07-22T09:52:04;10.20;;;9.20;;
44862;SDS011;30597;49.628;10.850;2022-07-22T09:54:31;10.57;;;9.57;;
44862;SDS011;30597;49.628;10.850;2022-07-22T09:56:57;9.73;;;8.83;;
44862;SDS011;30597;49.628;10.850;2022-07-22T09:59:23;9.97;;;8.87;;
44862;SDS011;30597;49.628;10.850;2022-07-22T10:01:51;9.23;;;8.43;;
44862;SDS011;30597;49.628;10.850;2022-07-22T10:04:23;10.13;;;9.13;;
44862;SDS011;30597;49.628;10.850;2022-07-22T10:06:49;14.63;;;11.77;;
44862;SDS011;30597;49.628;10.850;2022-07-22T10:09:17;19.30;;;13.63;;
44862;SDS011;30597;49.628;10.850;2022-07-22T10:11:43;14.50;;;13.00;;
44862;SDS011;30597;49.628;10.850;2022-07-22T10:14:12;20.43;;;15.77;;
44862;SDS011;30597;49.628;10.850;2022-07-22T10:16:39;20.30;;;16.40;;
44862;SDS011;30597;49.628;10.850;2022-07-22T10:19:05;21.60;;;16.73;;
44862;SDS011;30597;49.628;10.850;2022-07-22T10:21:32;15.93;;;14.30;;
44862;SDS011;30597;49.628;10.850;2022-07-22T10:24:14;17.83;;;15.93;;
44862;SDS011;30597;49.628;10.850;2022-07-22T10:26:52;15.33;;;13.73;;
44862;SDS011;30597;49.628;10.850;2022-07-22T10:29:31;20.33;;;14.57;;
44862;SDS011;30597;49.628;10.850;2022-07-22T10:35:26;15.77;;;14.10;;
44862;SDS011;30597;49.628;10.850;2022-07-22T10:40:10;16.80;;;15.07;;
44862;SDS011;30597;49.628;10.850;2022-07-22T10:43:22;16.20;;;13.43;;
44862;SDS011;30597;49.628;10.850;2022-07-22T10:48:15;13.33;;;11.83;;
44862;SDS011;30597;49.628;10.850;2022-07-22T10:50:50;16.00;;;13.60;;
44862;SDS011;30597;49.628;10.850;2022-07-22T10:53:17;15.30;;;13.37;;
44862;SDS011;30597;49.628;10.850;2022-07-22T10:58:45;14.57;;;13.00;;
44862;SDS011;30597;49.628;10.850;2022-07-22T11:01:14;14.60;;;11.90;;
44862;SDS011;30597;49.628;10.850;2022-07-22T11:03:41;14.10;;;12.60;;
44862;SDS011;30597;49.628;10.850;2022-07-22T11:08:42;16.23;;;13.53;;
44862;SDS011;30597;49.628;10.850;2022-07-22T11:11:09;13.50;;;12.10;;
44862;SDS011;30597;49.628;10.850;2022-07-22T11:13:36;14.63;;;11.83;;
44862;SDS011;30597;49.628;10.850;2022-07-22T11:16:16;17.33;;;12.27;;
44862;SDS011;30597;49.628;10.850;2022-07-22T11:18:51;16.60;;;12.80;;
44862;SDS011;30597;49.628;10.850;2022-07-22T11:21:19;13.57;;;11.40;;
44862;SDS011;30597;49.628;10.850;2022-07-22T11:23:46;12.80;;;11.50;;
44862;SDS011;30597;49.628;10.850;2022-07-22T11:26:14;13.47;;;12.00;;
44862;SDS011;30597;49.628;10.850;2022-07-22T11:28:44;16.33;;;13.33;;
44862;SDS011;30597;49.628;10.850;2022-07-22T11:31:12;12.03;;;10.57;;
44862;SDS011;30597;49.628;10.850;2022-07-22T11:33:39;12.97;;;11.67;;
44862;SDS011;30597;49.628;10.850;2022-07-22T11:36:06;13.67;;;11.80;;
44862;SDS011;30597;49.628;10.850;2022-07-22T11:38:41;12.73;;;11.53;;
44862;SDS011;30597;49.628;10.850;2022-07-22T11:41:15;11.73;;;10.57;;
44862;SDS011;30597;49.628;10.850;2022-07-22T11:43:46;11.10;;;9.93;;
44862;SDS011;30597;49.628;10.850;2022-07-22T11:46:14;12.50;;;10.70;;
44862;SDS011;30597;49.628;10.850;2022-07-22T11:48:42;11.57;;;10.50;;
44862;SDS011;30597;49.628;10.850;2022-07-22T11:51:09;13.03;;;10.77;;
44862;SDS011;30597;49.628;10.850;2022-07-22T11:53:36;11.60;;;10.50;;
44862;SDS011;30597;49.628;10.850;2022-07-22T11:56:04;12.57;;;10.60;;
44862;SDS011;30597;49.628;10.850;2022-07-22T11:58:45;12.83;;;11.13;;
44862;SDS011;30597;49.628;10.850;2022-07-22T12:01:15;11.93;;;10.73;;
44862;SDS011;30597;49.628;10.850;2022-07-22T12:03:45;13.00;;;9.93;;
44862;SDS011;30597;49.628;10.850;2022-07-22T12:06:14;11.73;;;10.50;;
44862;SDS011;30597;49.628;10.850;2022-07-22T12:08:43;11.00;;;9.93;;
44862;SDS011;30597;49.628;10.850;2022-07-22T12:11:11;12.07;;;10.63;;
44862;SDS011;30597;49.628;10.850;2022-07-22T12:13:42;11.50;;;10.33;;
44862;SDS011;30597;49.628;10.850;2022-07-22T12:16:19;12.20;;;10.63;;
44862;SDS011;30597;49.628;10.850;2022-07-22T12:18:54;10.17;;;8.93;;
44862;SDS011;30597;49.628;10.850;2022-07-22T12:21:25;12.10;;;10.90;;
44862;SDS011;30597;49.628;10.850;2022-07-22T12:23:56;11.40;;;9.77;;
44862;SDS011;30597;49.628;10.850;2022-07-22T12:29:16;13.27;;;9.83;;
44862;SDS011;30597;49.628;10.850;2022-07-22T12:31:44;11.20;;;10.20;;
44862;SDS011;30597;49.628;10.850;2022-07-22T12:34:13;11.43;;;10.30;;
44862;SDS011;30597;49.628;10.850;2022-07-22T12:36:42;11.13;;;10.17;;
44862;SDS011;30597;49.628;10.850;2022-07-22T12:41:44;10.17;;;9.20;;
44862;SDS011;30597;49.628;10.850;2022-07-22T12:44:15;11.10;;;9.20;;
44862;SDS011;30597;49.628;10.850;2022-07-22T12:46:49;9.83;;;8.90;;
44862;SDS011;30597;49.628;10.850;2022-07-22T12:49:18;10.73;;;9.73;;
44862;SDS011;30597;49.628;10.850;2022-07-22T12:54:35;9.93;;;8.93;;
44862;SDS011;30597;49.628;10.850;2022-07-22T12:57:01;10.07;;;8.40;;
44862;SDS011;30597;49.628;10.850;2022-07-22T12:59:27;9.67;;;8.77;;
44862;SDS011;30597;49.628;10.850;2022-07-22T13:01:53;10.90;;;9.83;;
44862;SDS011;30597;49.628;10.850;2022-07-22T13:04:18;10.97;;;9.03;;
44862;SDS011;30597;49.628;10.850;2022-07-22T13:06:44;10.10;;;9.03;;
44862;SDS011;30597;49.628;10.850;2022-07-22T13:09:09;11.90;;;9.03;;
44862;SDS011;30597;49.628;10.850;2022-07-22T13:11:35;9.60;;;8.70;;
44862;SDS011;30597;49.628;10.850;2022-07-22T13:14:10;12.00;;;9.40;;
44862;SDS011;30597;49.628;10.850;2022-07-22T13:16:36;8.90;;;8.07;;
44862;SDS011;30597;49.628;10.850;2022-07-22T13:19:02;9.33;;;8.00;;
44862;SDS011;30597;49.628;10.850;2022-07-22T13:21:28;9.17;;;8.20;;
44862;SDS011;30597;49.628;10.850;2022-07-22T13:23:54;9.70;;;8.80;;
44862;SDS011;30597;49.628;10.850;2022-07-22T13:26:19;8.17;;;7.40;;
44862;SDS011;30597;49.628;10.850;2022-07-22T13:28:46;9.57;;;8.67;;
44862;SDS011;30597;49.628;10.850;2022-07-22T13:31:12;8.70;;;8.00;;
44862;SDS011;30597;49.628;10.850;2022-07-22T13:33:37;8.47;;;7.67;;
44862;SDS011;30597;49.628;10.850;2022-07-22T13:36:03;9.93;;;8.93;;
44862;SDS011;30597;49.628;10.850;2022-07-22T13:38:29;8.57;;;7.77;;
44862;SDS011;30597;49.628;10.850;2022-07-22T13:40:56;9.60;;;7.90;;
44862;SDS011;30597;49.628;10.850;2022-07-22T13:43:23;8.73;;;7.83;;
44862;SDS011;30597;49.628;10.850;2022-07-22T13:45:49;9.73;;;8.77;;
44862;SDS011;30597;49.628;10.850;2022-07-22T13:48:16;7.97;;;7.13;;
44862;SDS011;30597;49.628;10.850;2022-07-22T13:50:45;8.10;;;7.30;;
44862;SDS011;30597;49.628;10.850;2022-07-22T13:53:11;9.27;;;8.37;;
44862;SDS011;30597;49.628;10.850;2022-07-22T13:55:40;7.90;;;7.30;;
44862;SDS011;30597;49.628;10.850;2022-07-22T13:58:06;9.50;;;7.97;;
44862;SDS011;30597;49.628;10.850;2022-07-22T14:00:32;8.13;;;7.43;;
44862;SDS011;30597;49.628;10.850;2022-07-22T14:02:58;8.23;;;7.50;;
44862;SDS011;30597;49.628;10.850;2022-07-22T14:05:25;8.33;;;7.63;;
44862;SDS011;30597;49.628;10.850;2022-07-22T14:07:51;7.40;;;6.80;;
44862;SDS011;30597;49.628;10.850;2022-07-22T14:10:17;8.00;;;7.20;;
44862;SDS011;30597;49.628;10.850;2022-07-22T14:12:43;8.00;;;7.40;;
44862;SDS011;30597;49.628;10.850;2022-07-22T14:15:09;7.77;;;7.07;;
44862;SDS011;30597;49.628;10.850;2022-07-22T14:17:35;8.47;;;7.67;;
44862;SDS011;30597;49.628;10.850;2022-07-22T14:20:01;7.73;;;7.03;;
44862;SDS011;30597;49.628;10.850;2022-07-22T14:22:29;8.40;;;7.60;;
44862;SDS011;30597;49.628;10.850;2022-07-22T14:24:55;7.40;;;6.80;;
44862;SDS011;30597;49.628;10.850;2022-07-22T14:27:21;7.43;;;6.70;;
44862;SDS011;30597;49.628;10.850;2022-07-22T14:29:46;9.93;;;8.07;;
44862;SDS011;30597;49.628;10.850;2022-07-22T14:32:12;9.07;;;8.27;;
44862;SDS011;30597;49.628;10.850;2022-07-22T14:34:37;8.23;;;6.97;;
44862;SDS011;30597;49.628;10.850;2022-07-22T14:37:03;7.30;;;6.40;;
44862;SDS011;30597;49.628;10.850;2022-07-22T14:39:28;7.93;;;7.10;;
44862;SDS011;30597;49.628;10.850;2022-07-22T14:41:54;7.00;;;6.40;;
44862;SDS011;30597;49.628;10.850;2022-07-22T14:44:19;7.43;;;6.60;;
44862;SDS011;30597;49.628;10.850;2022-07-22T14:46:45;7.30;;;6.60;;
44862;SDS011;30597;49.628;10.850;2022-07-22T14:49:11;8.07;;;7.40;;
44862;SDS011;30597;49.628;10.850;2022-07-22T14:51:36;8.00;;;7.30;;
44862;SDS011;30597;49.628;10.850;2022-07-22T14:54:02;9.00;;;8.20;;